Orange Park, Florida
Current Conditions -  °F | °C
As of 9:53 AM on Friday 19 Dec 2014 (Local Time) from KNIP Reporting Station
Broken Clouds Broken Clouds  
Wind Chill: 58°   Ceiling: 25000
Heat Index: 58°   Visibility: 10mi
Dew Point: 42°   Wind: 3mph
Humidity: 56%   Direction: 350°N
Pressure: 30.17"   Gusts: NA
Location:  30.17°N, 81.7°W
Report Text: KNIP 191453Z 35003KT 10SM FEW200 BKN250 14/06 A3017 RMK AO2 SLP210 T01440056 51014
Loading
Personal Weather Stations






























Interactive Weather Map New forecast layout! Learn more

10-Day Weather Forecast

Advertisements
Track Severe Weather on mobile